Terminal Aerodrome Forecast
Issued by NWS Binghamton, NY

Home | Current Version | Previous Version | Text Only | Print | Product List | Glossary On
Versions: 1 2 3 4 5 6 7 8 9 10 11 12 13 14
414
FTUS41 KBGM 231133
TAFAVP
TAF
KAVP 231133Z 2312/2412 VRB04KT P6SM OVC100
     FM231400 22008KT P6SM -SHRA BKN025 OVC040
     FM231700 23010G17KT P6SM -SHRA OVC025
     FM232200 23010KT 5SM -SHRA BR OVC025
     FM240100 24005KT 4SM -SHRA BR OVC025
     FM240500 25004KT 4SM -SHRA BR OVC015=

USA.gov is the U.S. government's official web portal to all federal, state and local government web resources and services.